Pagrindinis puslapis
METAR-TAF:

METAR-TAF

Oro uostai :

Genuja, Italija

platuma: 44-25N, ilguma: 008-51E, Aukštis: 2 m

Dabartinis oras

Ataskaita buvo paskelbta 34 minutes, ne 20:50 UTC
Vėjas 17 kt iš Pietų
Temperatūra 14°C
Drėgmė 77%
Slėgis 1015 hPa
Matomumas 10 km arba daugiau
Su prošvaistėmis ne aukštis 1800 ft
Su prošvaistėmis ne aukštis 2700 ft

METAR: LIMJ 272050Z 18017KT 9999 BKN018 BKN027 14/10 Q1015

Laikas: 22:24 (21:24 UTC)

Prognozė

Ataskaita buvo paskelbta 4 valandos ir 24 minutes, ne 17:00 UTC
Prognozė galioja nuo 27 metu 18 UTC su 28 metu 18 UTC
Vėjas 12 kt iš Pietų/Pietryčių
Matomumas 10 km arba daugiau
Su prošvaistėmis ne aukštis 2000 ft
Su prošvaistėmis ne aukštis 5000 ft
Tapsmas
nuo 27 metu 19 UTC su 27 metu 21 UTC
Vėjas 15 kt iš Pietvakarių
Laikinai
nuo 27 metu 21 UTC su 28 metu 06 UTC
Vėjas 15 kt iš Pietvakarių su gūsio iki 30 kt
lietus

TAF: LIMJ 271700Z 2718/2818 15012KT 9999 BKN020 BKN050 BECMG 2719/2721 22015KT TEMPO 2721/2806 22015G30KT RA

Orai ataskaitas ir orų prognozės (METAR, TAF).

turimą stotys yra geltonos ir raudonos taškus žemėlapyje.

Perkelti pele per norėdami pamatyti stoties vardą.

Tada spustelėkite, norėdami matyti oro stebėjimo ir prognozės.

Norėdami pakeisti žemėlapį: spustelėkite ant žalios mygtukų su juodo kryžiaus žemyn,; žalią mygtuką su brūkšneliu, jei norite nutolinti; arba žalių rodyklių gretimoms žemėlapius.


METAR-TAF: